Time;durP1;ratioP1;P1;durP2;ratioP2;P2;SDS_P1;SDS_P2;PMS_P1;PMS_P2;Temp;Humidity;BMP_temperature;BMP_pressure;BME280_temperature;BME280_humidity;BME280_pressure;Samples;Min_cycle;Max_cycle;Signal;HPM_P1;HPM_P2
2022/07/18 00:00:24;;;;;;;1.98;1.20;;;;;;;;;;5158245;27;20042;-78
2022/07/18 00:02:50;;;;;;;5.00;1.40;;;;;;;;;;5141403;27;20019;-78
2022/07/18 00:05:16;;;;;;;3.08;1.50;;;;;;;;;;5158488;27;20042;-77
2022/07/18 00:07:41;;;;;;;2.58;1.50;;;;;;;;;;5103297;27;20063;-77
2022/07/18 00:10:07;;;;;;;1.48;1.15;;;;;;;;;;5099553;28;20099;-77
2022/07/18 00:12:34;;;;;;;11.38;1.80;;;;;;;;;;5116319;28;20560;-78
2022/07/18 00:14:59;;;;;;;3.10;1.40;;;;;;;;;;5099321;28;20036;-78
2022/07/18 00:17:26;;;;;;;6.15;1.50;;;;;;;;;;5121018;28;20114;-77
2022/07/18 00:19:52;;;;;;;2.65;1.30;;;;;;;;;;5103194;28;20039;-77
2022/07/18 00:22:19;;;;;;;2.30;1.33;;;;;;;;;;5118078;28;20038;-77
2022/07/18 00:24:45;;;;;;;4.18;1.50;;;;;;;;;;5100230;28;20080;-77
2022/07/18 00:27:10;;;;;;;3.80;1.30;;;;;;;;;;5116594;28;20035;-77
2022/07/18 00:29:37;;;;;;;3.22;1.30;;;;;;;;;;5099973;28;20130;-78
2022/07/18 00:32:05;;;;;;;3.47;1.65;;;;;;;;;;5117634;28;20036;-78
2022/07/18 00:34:31;;;;;;;4.10;1.35;;;;;;;;;;5117396;28;20039;-77
2022/07/18 00:36:57;;;;;;;3.30;1.30;;;;;;;;;;5130232;27;20038;-77
2022/07/18 00:39:23;;;;;;;1.75;1.27;;;;;;;;;;5121038;27;20075;-78
2022/07/18 00:41:49;;;;;;;3.38;1.58;;;;;;;;;;5121362;27;20039;-77
2022/07/18 00:44:21;;;;;;;5.38;1.40;;;;;;;;;;5120364;27;20100;-78
2022/07/18 00:46:50;;;;;;;4.22;1.50;;;;;;;;;;5120183;27;20078;-78
2022/07/18 00:49:16;;;;;;;2.63;1.40;;;;;;;;;;5119695;27;20064;-78
2022/07/18 00:51:41;;;;;;;3.53;1.30;;;;;;;;;;5118909;27;20091;-77
2022/07/18 00:54:07;;;;;;;9.20;1.35;;;;;;;;;;5118098;27;20039;-77
2022/07/18 00:56:33;;;;;;;7.82;1.42;;;;;;;;;;5117971;27;20030;-78
2022/07/18 00:58:59;;;;;;;4.43;1.30;;;;;;;;;;5118430;27;20042;-77
2022/07/18 01:01:42;;;;;;;1.85;1.30;;;;;;;;;;5117813;27;20252;-78
2022/07/18 01:04:11;;;;;;;4.97;1.25;;;;;;;;;;5118697;27;20095;-77
2022/07/18 01:06:38;;;;;;;9.25;1.73;;;;;;;;;;5108788;28;20028;-78
2022/07/18 01:09:04;;;;;;;6.30;1.80;;;;;;;;;;5113711;28;20082;-78
2022/07/18 01:11:29;;;;;;;3.92;1.13;;;;;;;;;;5112505;28;20494;-78
2022/07/18 01:13:54;;;;;;;2.53;1.00;;;;;;;;;;5112844;28;20500;-77
2022/07/18 01:16:20;;;;;;;3.05;1.50;;;;;;;;;;5112723;28;20031;-78
2022/07/18 01:18:47;;;;;;;3.53;1.50;;;;;;;;;;5113261;28;20027;-78
2022/07/18 01:21:14;;;;;;;5.40;2.00;;;;;;;;;;5112458;27;20520;-77
2022/07/18 01:23:40;;;;;;;4.78;1.80;;;;;;;;;;5095381;28;20096;-77
2022/07/18 01:26:07;;;;;;;2.85;1.30;;;;;;;;;;5112920;28;20051;-78
2022/07/18 01:28:32;;;;;;;4.13;1.20;;;;;;;;;;5095698;28;20122;-77
2022/07/18 01:30:58;;;;;;;2.80;1.38;;;;;;;;;;5096007;28;20066;-77
2022/07/18 01:33:24;;;;;;;3.58;1.38;;;;;;;;;;5112930;28;20081;-78
2022/07/18 01:35:49;;;;;;;2.83;1.40;;;;;;;;;;5096234;28;20465;-77
2022/07/18 01:38:19;;;;;;;5.15;1.45;;;;;;;;;;5095270;28;20062;-78
2022/07/18 01:40:45;;;;;;;3.80;1.10;;;;;;;;;;5113065;28;20396;-78
2022/07/18 01:43:10;;;;;;;4.47;1.38;;;;;;;;;;5112591;28;20469;-77
2022/07/18 01:45:36;;;;;;;5.40;1.30;;;;;;;;;;5095967;28;20035;-78
2022/07/18 01:48:03;;;;;;;3.75;1.50;;;;;;;;;;5113682;28;20440;-77
2022/07/18 01:50:30;;;;;;;4.00;1.33;;;;;;;;;;5079690;28;20058;-78
2022/07/18 01:52:55;;;;;;;3.90;1.17;;;;;;;;;;5113420;28;20032;-78
2022/07/18 01:55:21;;;;;;;3.25;1.38;;;;;;;;;;5097743;28;20028;-78
2022/07/18 01:57:46;;;;;;;2.50;1.30;;;;;;;;;;5099679;28;20028;-77
2022/07/18 02:00:12;;;;;;;1.60;1.30;;;;;;;;;;5098614;28;20059;-77
2022/07/18 02:02:39;;;;;;;3.35;2.00;;;;;;;;;;5099200;28;20515;-77
2022/07/18 02:05:06;;;;;;;1.98;1.30;;;;;;;;;;5099529;28;20058;-77
2022/07/18 02:07:42;;;;;;;3.63;1.35;;;;;;;;;;5117865;28;20042;-77
2022/07/18 02:10:10;;;;;;;3.72;1.15;;;;;;;;;;5116979;28;20488;-77
2022/07/18 02:12:36;;;;;;;1.83;1.20;;;;;;;;;;5099119;28;20039;-77
2022/07/18 02:15:04;;;;;;;5.97;1.60;;;;;;;;;;5122283;28;20082;-76
2022/07/18 02:17:30;;;;;;;6.90;1.60;;;;;;;;;;5117050;27;20046;-77
2022/07/18 02:19:55;;;;;;;3.28;1.25;;;;;;;;;;5136077;27;20043;-76
2022/07/18 02:22:21;;;;;;;6.53;1.30;;;;;;;;;;5123802;27;20050;-78
2022/07/18 02:24:46;;;;;;;1.60;1.17;;;;;;;;;;5121099;27;20049;-77
2022/07/18 02:27:12;;;;;;;4.03;1.35;;;;;;;;;;5119217;27;20066;-77
2022/07/18 02:29:38;;;;;;;3.33;1.50;;;;;;;;;;5121555;27;20031;-76
2022/07/18 02:32:04;;;;;;;3.85;1.40;;;;;;;;;;5136346;27;20043;-77
2022/07/18 02:34:31;;;;;;;4.78;1.48;;;;;;;;;;5121843;27;20491;-77
2022/07/18 02:36:58;;;;;;;4.57;1.50;;;;;;;;;;5139447;27;20031;-77
2022/07/18 02:39:24;;;;;;;2.53;1.30;;;;;;;;;;5158781;27;20034;-78
2022/07/18 02:41:49;;;;;;;3.70;1.52;;;;;;;;;;5164947;27;20119;-78
2022/07/18 02:44:15;;;;;;;10.23;2.30;;;;;;;;;;5153782;27;20027;-80
2022/07/18 02:46:41;;;;;;;7.07;1.80;;;;;;;;;;5169167;27;20034;-77
2022/07/18 02:49:06;;;;;;;4.50;1.50;;;;;;;;;;5150317;27;20041;-78
2022/07/18 02:51:32;;;;;;;2.15;1.50;;;;;;;;;;5168360;27;20066;-77
2022/07/18 02:53:58;;;;;;;2.55;1.50;;;;;;;;;;5149702;27;20476;-78
2022/07/18 02:56:23;;;;;;;3.13;1.40;;;;;;;;;;5149440;27;20030;-78
2022/07/18 02:58:49;;;;;;;3.88;1.58;;;;;;;;;;5166788;27;20042;-78
2022/07/18 03:01:14;;;;;;;4.15;1.40;;;;;;;;;;5150654;27;20030;-80
2022/07/18 03:03:40;;;;;;;4.50;1.40;;;;;;;;;;5142704;27;20540;-77
2022/07/18 03:06:06;;;;;;;6.95;1.30;;;;;;;;;;5132465;27;20036;-77
2022/07/18 03:08:31;;;;;;;3.20;1.25;;;;;;;;;;5098115;28;20032;-77
2022/07/18 03:10:57;;;;;;;3.67;1.40;;;;;;;;;;5099176;28;20039;-77
2022/07/18 03:13:23;;;;;;;7.22;1.50;;;;;;;;;;5119551;27;20062;-77
2022/07/18 03:15:49;;;;;;;1.65;1.20;;;;;;;;;;5136829;27;20082;-77
2022/07/18 03:18:14;;;;;;;5.18;1.63;;;;;;;;;;5119860;27;20080;-77
2022/07/18 03:20:39;;;;;;;3.10;1.33;;;;;;;;;;5119951;27;20401;-77
2022/07/18 03:23:08;;;;;;;4.57;1.63;;;;;;;;;;5138295;27;20035;-77
2022/07/18 03:25:34;;;;;;;6.00;1.85;;;;;;;;;;5136813;27;20027;-77
2022/07/18 03:28:00;;;;;;;3.42;1.63;;;;;;;;;;5136698;27;20065;-77
2022/07/18 03:30:26;;;;;;;7.97;1.90;;;;;;;;;;5119699;27;20031;-77
2022/07/18 03:32:52;;;;;;;5.97;1.60;;;;;;;;;;5119841;27;20068;-77
2022/07/18 03:35:17;;;;;;;4.95;1.92;;;;;;;;;;5136374;27;20046;-77
2022/07/18 03:37:43;;;;;;;3.55;1.67;;;;;;;;;;5136811;27;20088;-77
2022/07/18 03:40:09;;;;;;;3.53;1.50;;;;;;;;;;5137262;27;20051;-78
2022/07/18 03:42:39;;;;;;;5.10;1.65;;;;;;;;;;5149132;27;20038;-77
2022/07/18 03:45:06;;;;;;;8.45;1.35;;;;;;;;;;5157475;27;20117;-77
2022/07/18 03:47:33;;;;;;;5.20;1.40;;;;;;;;;;5139744;27;20468;-77
2022/07/18 03:49:58;;;;;;;2.60;1.42;;;;;;;;;;5139398;27;20030;-77
2022/07/18 03:52:24;;;;;;;2.45;1.27;;;;;;;;;;5156717;27;20038;-77
2022/07/18 03:54:49;;;;;;;2.35;1.42;;;;;;;;;;5155829;27;20035;-77
2022/07/18 03:57:15;;;;;;;5.93;2.28;;;;;;;;;;5137846;27;20052;-77
2022/07/18 03:59:40;;;;;;;3.05;1.23;;;;;;;;;;5138021;27;20033;-77
2022/07/18 04:02:06;;;;;;;6.13;1.70;;;;;;;;;;5138730;27;20034;-77
2022/07/18 04:04:31;;;;;;;2.30;1.17;;;;;;;;;;5138810;27;20034;-77
2022/07/18 04:06:59;;;;;;;3.80;1.90;;;;;;;;;;5156744;27;20683;-77
2022/07/18 04:09:26;;;;;;;3.92;1.90;;;;;;;;;;5106399;27;20028;-77
2022/07/18 04:11:52;;;;;;;8.85;1.70;;;;;;;;;;5115080;28;20057;-77
2022/07/18 04:14:17;;;;;;;3.40;1.52;;;;;;;;;;5096837;28;20118;-77
2022/07/18 04:16:43;;;;;;;3.03;1.58;;;;;;;;;;5097512;28;20042;-77
2022/07/18 04:19:09;;;;;;;3.53;1.63;;;;;;;;;;5097920;28;20086;-77
2022/07/18 04:21:35;;;;;;;5.10;1.45;;;;;;;;;;5115042;28;20096;-77
2022/07/18 04:24:01;;;;;;;2.70;1.55;;;;;;;;;;5097762;28;20473;-77
2022/07/18 04:26:26;;;;;;;2.78;1.40;;;;;;;;;;5114970;28;20031;-77
2022/07/18 04:28:52;;;;;;;3.10;1.40;;;;;;;;;;5115127;28;20392;-77
2022/07/18 04:31:18;;;;;;;4.75;1.77;;;;;;;;;;5113967;28;20039;-77
2022/07/18 04:33:44;;;;;;;2.17;1.15;;;;;;;;;;5097810;28;20481;-77
2022/07/18 04:36:11;;;;;;;7.78;1.83;;;;;;;;;;5113211;27;20039;-77
2022/07/18 04:38:38;;;;;;;4.53;1.80;;;;;;;;;;5117683;27;20031;-77
2022/07/18 04:41:05;;;;;;;7.22;1.63;;;;;;;;;;5136397;27;20511;-77
2022/07/18 04:43:31;;;;;;;5.65;1.35;;;;;;;;;;5117930;27;20472;-77
2022/07/18 04:45:56;;;;;;;2.00;1.42;;;;;;;;;;5135325;27;20034;-79
2022/07/18 04:48:22;;;;;;;5.68;2.03;;;;;;;;;;5120167;27;20100;-79
2022/07/18 04:50:47;;;;;;;4.47;2.20;;;;;;;;;;5138070;27;20047;-77
2022/07/18 04:53:13;;;;;;;3.38;1.40;;;;;;;;;;5135081;27;20036;-78
2022/07/18 04:55:39;;;;;;;7.03;1.83;;;;;;;;;;5135006;27;20078;-78
2022/07/18 04:58:04;;;;;;;3.67;1.80;;;;;;;;;;5118865;27;20031;-81
2022/07/18 05:00:29;;;;;;;3.72;1.80;;;;;;;;;;5121015;27;20031;-81
2022/07/18 05:02:57;;;;;;;5.32;1.45;;;;;;;;;;5137684;27;20035;-77
2022/07/18 05:05:28;;;;;;;2.35;1.67;;;;;;;;;;5123900;27;20045;-77
2022/07/18 05:07:55;;;;;;;4.20;2.00;;;;;;;;;;5104599;28;20031;-81
2022/07/18 05:10:22;;;;;;;4.55;1.80;;;;;;;;;;5119335;28;20042;-81
2022/07/18 05:12:50;;;;;;;2.97;1.75;;;;;;;;;;5117459;28;20105;-79
2022/07/18 05:15:20;;;;;;;10.10;1.95;;;;;;;;;;5099348;28;20051;-81
2022/07/18 05:17:45;;;;;;;6.75;1.95;;;;;;;;;;5128010;28;20408;-78
2022/07/18 05:20:14;;;;;;;3.60;1.80;;;;;;;;;;5128808;28;20039;-78
2022/07/18 05:22:41;;;;;;;7.30;3.08;;;;;;;;;;5129456;28;20071;-78
2022/07/18 05:25:08;;;;;;;3.53;1.90;;;;;;;;;;5111792;28;20123;-79
2022/07/18 05:27:33;;;;;;;4.18;1.92;;;;;;;;;;5129932;28;20037;-78
2022/07/18 05:29:59;;;;;;;4.07;1.70;;;;;;;;;;5115226;28;20019;-78
2022/07/18 05:32:26;;;;;;;10.27;2.42;;;;;;;;;;5118831;28;20068;-78
2022/07/18 05:34:51;;;;;;;3.50;1.60;;;;;;;;;;5122519;27;20092;-79
2022/07/18 05:37:17;;;;;;;3.20;1.92;;;;;;;;;;5137142;27;20039;-78
2022/07/18 05:39:44;;;;;;;3.40;1.80;;;;;;;;;;5139168;27;20071;-78
2022/07/18 05:42:09;;;;;;;3.20;2.33;;;;;;;;;;5138731;27;20039;-78
2022/07/18 05:44:35;;;;;;;8.68;3.00;;;;;;;;;;5157391;27;20038;-78
2022/07/18 05:47:02;;;;;;;4.72;2.05;;;;;;;;;;5155858;27;20035;-79
2022/07/18 05:49:28;;;;;;;6.10;2.10;;;;;;;;;;5137558;27;20060;-79
2022/07/18 05:51:55;;;;;;;4.65;2.10;;;;;;;;;;5138493;27;20113;-79
2022/07/18 05:54:20;;;;;;;3.75;2.13;;;;;;;;;;5137428;27;20035;-79
2022/07/18 05:56:50;;;;;;;4.03;2.15;;;;;;;;;;5137386;27;20042;-78
2022/07/18 05:59:17;;;;;;;9.25;2.40;;;;;;;;;;5139092;27;20042;-79
2022/07/18 06:01:43;;;;;;;8.35;2.17;;;;;;;;;;5140587;27;20035;-79
2022/07/18 06:04:09;;;;;;;3.35;1.88;;;;;;;;;;5138956;27;20034;-79
2022/07/18 06:06:34;;;;;;;4.30;1.73;;;;;;;;;;5136237;27;20007;-79
2022/07/18 06:09:02;;;;;;;10.70;1.80;;;;;;;;;;5135041;28;20040;-78
2022/07/18 06:11:28;;;;;;;4.95;1.73;;;;;;;;;;5117928;28;20027;-79
2022/07/18 06:13:54;;;;;;;4.95;1.52;;;;;;;;;;5135024;28;20112;-79
2022/07/18 06:16:19;;;;;;;4.47;1.40;;;;;;;;;;5118261;28;20028;-78
2022/07/18 06:18:46;;;;;;;2.72;1.50;;;;;;;;;;5151345;27;20058;-79
2022/07/18 06:21:12;;;;;;;14.10;2.17;;;;;;;;;;5154033;27;20057;-79
2022/07/18 06:23:38;;;;;;;3.40;1.40;;;;;;;;;;5136982;27;20567;-78
2022/07/18 06:26:04;;;;;;;9.70;1.75;;;;;;;;;;5138193;27;20015;-79
2022/07/18 06:28:30;;;;;;;7.45;1.55;;;;;;;;;;5154317;27;20058;-79
2022/07/18 06:30:55;;;;;;;9.25;2.00;;;;;;;;;;5157154;27;20066;-79
2022/07/18 06:33:21;;;;;;;6.07;1.60;;;;;;;;;;5152537;27;20023;-79
2022/07/18 06:35:47;;;;;;;3.97;1.40;;;;;;;;;;5152729;27;20037;-79
2022/07/18 06:38:14;;;;;;;5.43;1.90;;;;;;;;;;5136105;27;20027;-79
2022/07/18 06:40:39;;;;;;;5.20;1.40;;;;;;;;;;5136499;27;20051;-79
2022/07/18 06:43:06;;;;;;;3.85;1.70;;;;;;;;;;5137125;27;20082;-79
2022/07/18 06:45:32;;;;;;;4.40;1.80;;;;;;;;;;5152889;27;20027;-79
2022/07/18 06:47:59;;;;;;;5.15;1.42;;;;;;;;;;5120761;27;20102;-77
2022/07/18 06:50:27;;;;;;;3.20;1.23;;;;;;;;;;5136149;27;20139;-77
2022/07/18 06:52:53;;;;;;;4.10;1.33;;;;;;;;;;5119031;27;20039;-77
2022/07/18 06:55:22;;;;;;;13.10;1.60;;;;;;;;;;5136144;27;20034;-77
2022/07/18 06:57:47;;;;;;;3.50;1.50;;;;;;;;;;5119136;27;20054;-77
2022/07/18 07:00:14;;;;;;;8.68;1.80;;;;;;;;;;5136929;27;20484;-77
2022/07/18 07:02:44;;;;;;;3.28;1.30;;;;;;;;;;5119913;27;20035;-77
2022/07/18 07:05:10;;;;;;;5.68;1.30;;;;;;;;;;5136926;27;20346;-77
2022/07/18 07:07:36;;;;;;;5.82;1.40;;;;;;;;;;5120009;27;20041;-77
2022/07/18 07:10:02;;;;;;;2.92;1.35;;;;;;;;;;5137519;27;20134;-77
2022/07/18 07:12:27;;;;;;;3.38;1.63;;;;;;;;;;5120384;27;20038;-77
2022/07/18 07:14:53;;;;;;;8.68;1.55;;;;;;;;;;5139091;27;20035;-77
2022/07/18 07:17:18;;;;;;;6.90;1.60;;;;;;;;;;5136899;27;20031;-77
2022/07/18 07:19:43;;;;;;;5.25;1.50;;;;;;;;;;5137977;27;20063;-77
2022/07/18 07:22:09;;;;;;;3.28;1.40;;;;;;;;;;5138171;27;20026;-77
2022/07/18 07:24:34;;;;;;;4.22;1.55;;;;;;;;;;5138797;27;20112;-77
2022/07/18 07:27:00;;;;;;;6.78;1.83;;;;;;;;;;5120706;27;20051;-77
2022/07/18 07:29:25;;;;;;;4.68;1.73;;;;;;;;;;5138723;27;20046;-77
2022/07/18 07:31:51;;;;;;;8.35;1.75;;;;;;;;;;5138772;27;20129;-77
2022/07/18 07:34:16;;;;;;;5.70;1.58;;;;;;;;;;5120922;27;20031;-77
2022/07/18 07:36:42;;;;;;;4.25;1.40;;;;;;;;;;5138866;27;20038;-77
2022/07/18 07:39:07;;;;;;;3.17;1.30;;;;;;;;;;5121192;27;20031;-77
2022/07/18 07:41:33;;;;;;;2.85;1.60;;;;;;;;;;5120641;27;21649;-77
2022/07/18 07:43:58;;;;;;;6.15;1.60;;;;;;;;;;5139414;27;20059;-77
2022/07/18 07:46:24;;;;;;;11.95;1.60;;;;;;;;;;5122443;27;20031;-77
2022/07/18 07:48:49;;;;;;;2.92;1.30;;;;;;;;;;5122794;27;20047;-77
2022/07/18 07:51:16;;;;;;;2.65;1.23;;;;;;;;;;5122880;27;20038;-77
2022/07/18 07:53:41;;;;;;;11.50;1.88;;;;;;;;;;5138798;27;20496;-77
2022/07/18 07:56:07;;;;;;;6.03;1.63;;;;;;;;;;5139968;27;20118;-77
2022/07/18 07:58:32;;;;;;;11.23;1.60;;;;;;;;;;5142084;27;20046;-77
2022/07/18 08:00:58;;;;;;;3.83;1.30;;;;;;;;;;5136526;27;20035;-77
2022/07/18 08:03:24;;;;;;;7.35;1.60;;;;;;;;;;5135411;27;20365;-76
2022/07/18 08:05:50;;;;;;;4.97;1.73;;;;;;;;;;5133961;27;20035;-76
2022/07/18 08:08:16;;;;;;;3.03;1.10;;;;;;;;;;5116971;27;20076;-77
2022/07/18 08:10:42;;;;;;;6.25;1.65;;;;;;;;;;5136182;27;20027;-76
2022/07/18 08:13:08;;;;;;;3.65;1.80;;;;;;;;;;5149846;27;20036;-76
2022/07/18 08:15:35;;;;;;;5.68;1.63;;;;;;;;;;5155663;27;20031;-76
2022/07/18 08:18:01;;;;;;;3.60;1.38;;;;;;;;;;5154878;27;20038;-76
2022/07/18 08:20:26;;;;;;;3.40;1.40;;;;;;;;;;5155874;27;20038;-76
2022/07/18 08:22:59;;;;;;;3.05;1.20;;;;;;;;;;5137568;27;20065;-76
2022/07/18 08:25:26;;;;;;;6.45;1.67;;;;;;;;;;5136512;27;20054;-76
2022/07/18 08:27:52;;;;;;;10.27;1.38;;;;;;;;;;5155929;27;20079;-77
2022/07/18 08:30:18;;;;;;;3.88;1.25;;;;;;;;;;5137370;27;20476;-77
2022/07/18 08:32:46;;;;;;;4.22;1.30;;;;;;;;;;5138916;27;20035;-77
2022/07/18 08:35:12;;;;;;;5.20;1.20;;;;;;;;;;5128717;27;20019;-77
2022/07/18 08:37:37;;;;;;;3.00;1.00;;;;;;;;;;5133030;27;20046;-76
2022/07/18 08:40:03;;;;;;;3.33;1.20;;;;;;;;;;5116452;27;20085;-76
2022/07/18 08:42:32;;;;;;;2.13;1.05;;;;;;;;;;5134321;27;20027;-75
2022/07/18 08:44:57;;;;;;;5.70;1.55;;;;;;;;;;5135630;27;20050;-77
2022/07/18 08:47:26;;;;;;;4.10;0.95;;;;;;;;;;5117025;27;20047;-77
2022/07/18 08:49:53;;;;;;;2.53;1.10;;;;;;;;;;5130098;27;20114;-77
2022/07/18 08:52:21;;;;;;;4.38;1.30;;;;;;;;;;5110472;28;20479;-78
2022/07/18 08:54:50;;;;;;;5.10;1.38;;;;;;;;;;5097409;28;20457;-77
2022/07/18 08:57:17;;;;;;;7.53;1.40;;;;;;;;;;5096149;28;20036;-78
2022/07/18 08:59:42;;;;;;;6.03;1.48;;;;;;;;;;5114736;28;20035;-77
2022/07/18 09:02:08;;;;;;;2.95;1.02;;;;;;;;;;5115032;28;20038;-78
2022/07/18 09:04:39;;;;;;;2.45;1.30;;;;;;;;;;5100537;27;20114;-78
2022/07/18 09:07:08;;;;;;;2.40;1.35;;;;;;;;;;5121553;27;20068;-78
2022/07/18 09:09:34;;;;;;;2.67;1.25;;;;;;;;;;5126870;27;20109;-77
2022/07/18 09:12:05;;;;;;;2.78;1.15;;;;;;;;;;5118603;27;20027;-77
2022/07/18 09:14:38;;;;;;;8.05;1.52;;;;;;;;;;5126396;27;20032;-77
2022/07/18 09:17:11;;;;;;;5.13;1.58;;;;;;;;;;5125421;27;20055;-80
2022/07/18 09:19:37;;;;;;;3.58;1.25;;;;;;;;;;5114571;28;20063;-79
2022/07/18 09:22:14;;;;;;;4.20;1.42;;;;;;;;;;5110640;28;20043;-81
2022/07/18 09:24:49;;;;;;;3.50;1.40;;;;;;;;;;5114439;28;20031;-81
2022/07/18 09:27:37;;;;;;;3.40;1.20;;;;;;;;;;5127180;28;20038;-82
2022/07/18 09:30:17;;;;;;;4.47;1.10;;;;;;;;;;5116584;28;20027;-81
2022/07/18 09:32:51;;;;;;;2.50;0.95;;;;;;;;;;5115139;28;20031;-80
2022/07/18 09:35:23;;;;;;;7.40;1.08;;;;;;;;;;5129397;27;20036;-77
2022/07/18 09:37:54;;;;;;;9.65;1.00;;;;;;;;;;5135019;27;20066;-81
2022/07/18 09:40:23;;;;;;;2.88;1.33;;;;;;;;;;5118973;28;20047;-80
2022/07/18 09:42:50;;;;;;;5.55;2.90;;;;;;;;;;5105494;28;20043;-80
2022/07/18 09:45:16;;;;;;;5.10;1.83;;;;;;;;;;5119473;28;20031;-78
2022/07/18 09:48:12;;;;;;;3.53;1.70;;;;;;;;;;5124636;27;20453;-78
2022/07/18 09:50:49;;;;;;;1.70;0.90;;;;;;;;;;5121015;27;20408;-77
2022/07/18 09:53:19;;;;;;;5.25;1.55;;;;;;;;;;5118181;28;20035;-78
2022/07/18 09:56:06;;;;;;;2.17;1.15;;;;;;;;;;5113181;28;20036;-78
2022/07/18 09:58:33;;;;;;;5.07;1.27;;;;;;;;;;5115366;28;20039;-78
2022/07/18 10:01:01;;;;;;;3.97;1.20;;;;;;;;;;5095320;28;20126;-76
2022/07/18 10:03:27;;;;;;;3.13;1.10;;;;;;;;;;5113429;28;20127;-76
2022/07/18 10:05:54;;;;;;;3.90;1.20;;;;;;;;;;5111865;28;20512;-76
2022/07/18 10:08:27;;;;;;;7.38;1.00;;;;;;;;;;5111645;28;20053;-76
2022/07/18 10:10:54;;;;;;;1.48;1.00;;;;;;;;;;5111629;28;20092;-76
2022/07/18 10:13:22;;;;;;;3.55;1.00;;;;;;;;;;5111854;28;20035;-76
2022/07/18 10:15:50;;;;;;;5.70;1.00;;;;;;;;;;5132366;27;20035;-76
2022/07/18 10:18:19;;;;;;;2.20;1.15;;;;;;;;;;5136503;27;20046;-76
2022/07/18 10:20:54;;;;;;;6.88;1.38;;;;;;;;;;5136409;27;20365;-76
2022/07/18 10:23:29;;;;;;;1.23;0.90;;;;;;;;;;5137125;27;20035;-76
2022/07/18 10:26:21;;;;;;;6.80;1.50;;;;;;;;;;5136238;27;20114;-76
2022/07/18 10:28:59;;;;;;;2.05;1.17;;;;;;;;;;5119290;27;20403;-76
2022/07/18 10:31:26;;;;;;;7.25;1.23;;;;;;;;;;5118928;27;20031;-76
2022/07/18 10:33:53;;;;;;;5.30;1.10;;;;;;;;;;5135926;27;20035;-76
2022/07/18 10:36:20;;;;;;;3.08;1.15;;;;;;;;;;5135619;27;20106;-76
2022/07/18 10:39:12;;;;;;;2.75;1.02;;;;;;;;;;5136896;27;20054;-76
2022/07/18 10:41:40;;;;;;;9.35;1.40;;;;;;;;;;5135750;27;20393;-76
2022/07/18 10:44:34;;;;;;;2.53;1.30;;;;;;;;;;5137068;27;20043;-76
2022/07/18 10:47:03;;;;;;;1.98;0.90;;;;;;;;;;5118653;27;20043;-76
2022/07/18 10:49:50;;;;;;;2.72;1.10;;;;;;;;;;5135545;27;20035;-75
2022/07/18 10:52:24;;;;;;;1.25;0.98;;;;;;;;;;5136911;27;20043;-76
2022/07/18 10:55:05;;;;;;;2.88;1.00;;;;;;;;;;5136747;27;20498;-76
2022/07/18 10:57:36;;;;;;;4.05;1.33;;;;;;;;;;5118520;27;20062;-76
2022/07/18 11:00:09;;;;;;;3.97;1.30;;;;;;;;;;5135636;27;20039;-76
2022/07/18 11:02:43;;;;;;;2.80;1.23;;;;;;;;;;5136776;27;20066;-76
2022/07/18 11:05:35;;;;;;;2.28;1.00;;;;;;;;;;5113995;28;20042;-75
2022/07/18 11:08:01;;;;;;;4.97;1.20;;;;;;;;;;5111412;28;20404;-76
2022/07/18 11:10:42;;;;;;;1.98;1.23;;;;;;;;;;5097910;28;20366;-76
2022/07/18 11:13:20;;;;;;;3.60;1.30;;;;;;;;;;5126173;27;20126;-76
2022/07/18 11:16:02;;;;;;;6.43;1.27;;;;;;;;;;5136333;27;20062;-76
2022/07/18 11:18:30;;;;;;;4.65;1.40;;;;;;;;;;5117890;27;20035;-76
2022/07/18 11:20:56;;;;;;;4.15;0.90;;;;;;;;;;5117917;27;20035;-76
2022/07/18 11:23:24;;;;;;;3.45;1.20;;;;;;;;;;5117947;27;20038;-76
2022/07/18 11:25:52;;;;;;;5.43;1.45;;;;;;;;;;5135995;27;20027;-76
2022/07/18 11:28:21;;;;;;;2.45;1.30;;;;;;;;;;5116324;27;20115;-76
2022/07/18 11:31:08;;;;;;;2.35;1.13;;;;;;;;;;5134982;27;20410;-76
2022/07/18 11:33:37;;;;;;;3.58;1.30;;;;;;;;;;5117751;27;20039;-76
2022/07/18 11:36:08;;;;;;;2.30;1.27;;;;;;;;;;5133485;27;20039;-76
2022/07/18 11:38:35;;;;;;;4.03;1.40;;;;;;;;;;5117580;27;20039;-76
2022/07/18 11:41:02;;;;;;;2.42;1.20;;;;;;;;;;5134577;27;20122;-76
2022/07/18 11:43:28;;;;;;;5.65;1.27;;;;;;;;;;5135786;27;20035;-76
2022/07/18 11:46:01;;;;;;;9.90;1.38;;;;;;;;;;5117561;27;20034;-76
2022/07/18 11:48:27;;;;;;;7.53;1.30;;;;;;;;;;5134351;27;20035;-76
2022/07/18 11:50:52;;;;;;;4.65;2.05;;;;;;;;;;5135507;27;20446;-76
2022/07/18 11:53:18;;;;;;;4.80;1.52;;;;;;;;;;5134673;27;20027;-76
2022/07/18 11:55:43;;;;;;;3.38;1.35;;;;;;;;;;5135532;27;20138;-76
2022/07/18 11:58:13;;;;;;;2.45;1.20;;;;;;;;;;5133960;27;20091;-75
2022/07/18 12:00:40;;;;;;;2.75;1.17;;;;;;;;;;5133432;27;20376;-76
2022/07/18 12:03:19;;;;;;;2.97;1.20;;;;;;;;;;5134223;27;20412;-75
2022/07/18 12:05:48;;;;;;;4.38;1.38;;;;;;;;;;5134187;27;20039;-77
2022/07/18 12:08:29;;;;;;;4.68;1.35;;;;;;;;;;5116613;27;20039;-76
2022/07/18 12:11:10;;;;;;;5.38;1.63;;;;;;;;;;5134238;27;20046;-75
2022/07/18 12:14:00;;;;;;;5.97;1.35;;;;;;;;;;5134977;27;20037;-75
2022/07/18 12:16:31;;;;;;;8.32;1.33;;;;;;;;;;5126506;27;20100;-76
2022/07/18 12:19:07;;;;;;;7.88;1.60;;;;;;;;;;5135320;27;20418;-76
2022/07/18 12:21:53;;;;;;;10.57;1.17;;;;;;;;;;5134671;27;20035;-76
2022/07/18 12:24:34;;;;;;;3.83;1.00;;;;;;;;;;5116972;27;20131;-78
2022/07/18 12:27:35;;;;;;;5.72;1.33;;;;;;;;;;5116981;27;20358;-77
2022/07/18 12:30:06;;;;;;;5.35;1.30;;;;;;;;;;5071662;28;20426;-78
2022/07/18 12:32:47;;;;;;;6.63;1.27;;;;;;;;;;5120047;27;20075;-77
2022/07/18 12:35:16;;;;;;;4.13;1.00;;;;;;;;;;5120121;27;20059;-79
2022/07/18 12:38:09;;;;;;;5.88;1.38;;;;;;;;;;5142614;27;20042;-79
2022/07/18 12:40:44;;;;;;;3.83;1.27;;;;;;;;;;5125034;27;20397;-78
2022/07/18 12:43:10;;;;;;;;;;;;;;;;;;5145003;27;20041;-80
2022/07/18 12:45:37;;;;;;;3.63;1.05;;;;;;;;;;5127809;27;19919;-81
2022/07/18 12:48:05;;;;;;;3.08;1.30;;;;;;;;;;5127747;27;20035;-79
2022/07/18 12:50:30;;;;;;;5.28;1.30;;;;;;;;;;5146284;27;20034;-78
2022/07/18 12:52:57;;;;;;;3.33;1.13;;;;;;;;;;5128975;27;20031;-78
2022/07/18 12:55:23;;;;;;;2.10;1.05;;;;;;;;;;5126692;27;20031;-79
2022/07/18 12:57:49;;;;;;;6.13;1.08;;;;;;;;;;5146980;27;20112;-78
2022/07/18 13:00:15;;;;;;;8.70;1.48;;;;;;;;;;5144604;27;20056;-79
2022/07/18 13:02:43;;;;;;;7.43;1.50;;;;;;;;;;5144333;27;20031;-79
2022/07/18 13:05:08;;;;;;;2.00;1.00;;;;;;;;;;5127819;27;20042;-79
2022/07/18 13:07:34;;;;;;;2.30;1.35;;;;;;;;;;5145049;27;20039;-79
2022/07/18 13:10:00;;;;;;;3.20;1.17;;;;;;;;;;5147847;27;20042;-78
2022/07/18 13:12:25;;;;;;;10.82;1.27;;;;;;;;;;5129358;27;20057;-78
2022/07/18 13:14:51;;;;;;;4.55;1.90;;;;;;;;;;5145703;27;20051;-79
2022/07/18 13:17:16;;;;;;;4.05;1.00;;;;;;;;;;5145073;27;20058;-79
2022/07/18 13:19:42;;;;;;;10.68;1.58;;;;;;;;;;5126529;28;20078;-78
2022/07/18 13:22:07;;;;;;;2.55;1.20;;;;;;;;;;5146157;28;20034;-79
2022/07/18 13:24:32;;;;;;;5.70;1.30;;;;;;;;;;5126722;28;20039;-79
2022/07/18 13:26:58;;;;;;;3.53;1.15;;;;;;;;;;5144660;28;20031;-79
2022/07/18 13:29:23;;;;;;;2.20;1.02;;;;;;;;;;5128576;28;20099;-79
2022/07/18 13:31:50;;;;;;;4.95;1.30;;;;;;;;;;5144549;28;20062;-79
2022/07/18 13:34:17;;;;;;;2.80;1.20;;;;;;;;;;5126692;28;20027;-79
2022/07/18 13:36:42;;;;;;;3.70;1.45;;;;;;;;;;5145083;28;20576;-78
2022/07/18 13:39:08;;;;;;;4.45;1.15;;;;;;;;;;5126962;27;20468;-79
2022/07/18 13:41:33;;;;;;;3.67;1.10;;;;;;;;;;5143114;27;20166;-79
2022/07/18 13:43:59;;;;;;;8.65;1.25;;;;;;;;;;5143543;27;20031;-78
2022/07/18 13:46:24;;;;;;;2.42;1.15;;;;;;;;;;5144800;28;20064;-79
2022/07/18 13:48:50;;;;;;;3.90;1.02;;;;;;;;;;5143673;27;20031;-78
2022/07/18 13:51:16;;;;;;;2.00;0.90;;;;;;;;;;5145840;27;20034;-78
2022/07/18 13:53:42;;;;;;;4.15;1.30;;;;;;;;;;5148643;27;20039;-78
2022/07/18 13:56:08;;;;;;;5.20;1.20;;;;;;;;;;5130425;27;20065;-79
2022/07/18 13:58:34;;;;;;;3.78;1.13;;;;;;;;;;5147377;27;20027;-79
2022/07/18 14:00:59;;;;;;;3.97;1.33;;;;;;;;;;5147304;27;20369;-79
2022/07/18 14:03:25;;;;;;;6.35;1.30;;;;;;;;;;5129976;27;20042;-79
2022/07/18 14:05:50;;;;;;;1.98;1.13;;;;;;;;;;5128625;27;20461;-79
2022/07/18 14:08:16;;;;;;;5.80;1.58;;;;;;;;;;5125817;27;20039;-78
2022/07/18 14:10:41;;;;;;;1.92;1.00;;;;;;;;;;5124955;27;20126;-78
2022/07/18 14:13:07;;;;;;;3.58;1.10;;;;;;;;;;5124755;27;20050;-78
2022/07/18 14:15:32;;;;;;;5.97;1.45;;;;;;;;;;5142283;27;20039;-78
2022/07/18 14:17:58;;;;;;;3.97;1.52;;;;;;;;;;5141163;27;20121;-78
2022/07/18 14:20:23;;;;;;;5.38;1.27;;;;;;;;;;5123645;27;20057;-78
2022/07/18 14:22:49;;;;;;;1.92;1.10;;;;;;;;;;5143433;27;20031;-78
2022/07/18 14:25:16;;;;;;;3.67;1.10;;;;;;;;;;5124441;27;20404;-78
2022/07/18 14:27:43;;;;;;;3.65;1.25;;;;;;;;;;5143521;27;20035;-78
2022/07/18 14:30:11;;;;;;;3.72;1.40;;;;;;;;;;5125480;27;20365;-78
2022/07/18 14:32:37;;;;;;;4.40;1.40;;;;;;;;;;5124257;27;20031;-78
2022/07/18 14:35:03;;;;;;;2.45;1.20;;;;;;;;;;5127329;27;20022;-78
2022/07/18 14:37:29;;;;;;;4.13;1.38;;;;;;;;;;5120371;28;20450;-78
2022/07/18 14:39:54;;;;;;;10.65;1.90;;;;;;;;;;5120442;28;20064;-78
2022/07/18 14:42:20;;;;;;;3.15;1.27;;;;;;;;;;5129226;27;20057;-78
2022/07/18 14:44:45;;;;;;;3.03;1.50;;;;;;;;;;5126008;27;20050;-79
2022/07/18 14:47:11;;;;;;;4.22;1.55;;;;;;;;;;5141508;27;20027;-79